Time;durP1;ratioP1;P1;durP2;ratioP2;P2;SDS_P1;SDS_P2;PMS_P1;PMS_P2;Temp;Humidity;BMP_temperature;BMP_pressure;BME280_temperature;BME280_humidity;BME280_pressure;Samples;Min_cycle;Max_cycle;Signal;HPM_P1;HPM_P2
2022/07/04 05:28:59;;;;;;;12.20;11.60;;;21.40;99.90;;;;;;4939961;23;20499;-78
2022/07/04 05:31:25;;;;;;;12.50;11.97;;;21.40;99.90;;;;;;4933363;29;20456;-79
2022/07/04 05:33:52;;;;;;;14.10;13.50;;;21.50;99.90;;;;;;4933663;29;20525;-77
2022/07/04 05:36:19;;;;;;;12.60;11.93;;;21.50;99.90;;;;;;4934113;29;20446;-77
2022/07/04 05:38:46;;;;;;;15.27;13.77;;;21.60;99.90;;;;;;4932983;29;20449;-76
2022/07/04 05:41:12;;;;;;;12.70;11.90;;;21.80;99.90;;;;;;4933548;29;20457;-75
2022/07/04 05:43:39;;;;;;;12.50;11.60;;;22.00;99.90;;;;;;4933580;29;20450;-77
2022/07/04 05:46:07;;;;;;;12.63;12.00;;;22.20;99.90;;;;;;4933427;29;20493;-77
2022/07/04 05:48:34;;;;;;;12.30;11.80;;;22.60;99.90;;;;;;4933389;29;20465;-79
2022/07/04 05:51:01;;;;;;;13.17;12.47;;;22.90;99.90;;;;;;4933477;29;20472;-81
2022/07/04 05:53:28;;;;;;;12.30;11.60;;;23.20;99.90;;;;;;4933276;29;20493;-79
2022/07/04 05:55:55;;;;;;;13.30;12.57;;;23.30;99.10;;;;;;4933851;29;20454;-80
2022/07/04 05:58:21;;;;;;;14.27;13.57;;;23.30;99.20;;;;;;4933477;29;20461;-79
2022/07/04 06:00:48;;;;;;;14.20;13.33;;;23.60;99.10;;;;;;4933225;29;20457;-79
2022/07/04 06:03:16;;;;;;;11.60;10.93;;;23.80;98.00;;;;;;4933186;29;20464;-80
2022/07/04 06:05:43;;;;;;;12.77;12.13;;;24.20;97.70;;;;;;4933310;29;20497;-79
2022/07/04 06:08:09;;;;;;;12.83;12.13;;;24.30;96.90;;;;;;4933403;29;20457;-78
2022/07/04 06:10:36;;;;;;;12.67;12.00;;;24.60;96.90;;;;;;4933152;29;20453;-80
2022/07/04 06:13:20;;;;;;;12.17;11.57;;;24.80;96.50;;;;;;4933082;29;20453;-75
2022/07/04 06:15:47;;;;;;;13.27;12.57;;;24.90;95.70;;;;;;4927528;29;20865;-76
2022/07/04 06:18:16;;;;;;;11.90;11.40;;;25.10;95.50;;;;;;4932672;29;20476;-75
2022/07/04 06:20:43;;;;;;;13.13;12.40;;;25.30;95.10;;;;;;4932879;29;20536;-76
2022/07/04 06:23:10;;;;;;;12.03;11.43;;;25.30;94.80;;;;;;4932980;29;20465;-75
2022/07/04 06:25:36;;;;;;;13.20;12.40;;;25.30;95.30;;;;;;4932532;29;20473;-76
2022/07/04 06:28:03;;;;;;;12.83;12.03;;;25.30;94.70;;;;;;4934681;29;20485;-76
2022/07/04 06:30:32;;;;;;;12.53;11.73;;;25.40;94.60;;;;;;4935788;29;20884;-75
2022/07/04 06:33:00;;;;;;;12.47;11.77;;;25.20;94.60;;;;;;4936064;29;20867;-76
2022/07/04 06:35:51;;;;;;;11.90;11.40;;;24.90;94.70;;;;;;4936036;29;20966;-75
2022/07/04 06:38:19;;;;;;;13.30;12.60;;;24.90;95.60;;;;;;4935810;29;20544;-75
2022/07/04 06:40:46;;;;;;;12.47;11.97;;;25.00;94.60;;;;;;4935648;29;20863;-75
2022/07/04 06:43:13;;;;;;;12.20;11.70;;;25.10;94.60;;;;;;4935656;29;20968;-76
2022/07/04 06:45:40;;;;;;;12.13;11.47;;;25.30;94.10;;;;;;4935840;29;20453;-75
2022/07/04 06:48:08;;;;;;;13.00;12.40;;;25.60;94.10;;;;;;4935691;29;20464;-75
2022/07/04 06:50:36;;;;;;;13.20;12.40;;;25.90;92.90;;;;;;4935675;29;20458;-77
2022/07/04 06:53:04;;;;;;;12.77;11.87;;;26.00;93.00;;;;;;4935755;29;20520;-75
2022/07/04 06:58:22;;;;;;;12.20;11.70;;;26.50;92.20;;;;;;4925142;29;20449;-74
2022/07/04 07:00:48;;;;;;;12.43;11.93;;;27.10;91.00;;;;;;4935196;29;20454;-74
2022/07/04 07:03:15;;;;;;;12.60;11.80;;;26.80;91.20;;;;;;4935197;29;20747;-74
2022/07/04 07:05:43;;;;;;;14.20;13.40;;;26.80;90.70;;;;;;4935307;29;20461;-74
2022/07/04 07:08:10;;;;;;;13.13;12.40;;;26.80;90.90;;;;;;4935257;29;20454;-74
2022/07/04 07:10:36;;;;;;;12.43;11.83;;;26.60;90.90;;;;;;4935045;29;20460;-74
2022/07/04 07:13:04;;;;;;;13.17;12.20;;;26.40;91.10;;;;;;4934838;29;20453;-75
2022/07/04 07:15:35;;;;;;;12.73;12.23;;;26.30;91.50;;;;;;4934890;29;20959;-75
2022/07/04 07:18:01;;;;;;;14.20;13.43;;;25.90;92.00;;;;;;4934873;29;20457;-74
2022/07/04 07:20:28;;;;;;;11.73;11.27;;;25.50;92.80;;;;;;4935046;29;20454;-74
2022/07/04 07:22:56;;;;;;;13.33;12.73;;;25.70;92.00;;;;;;4935178;29;20513;-75
2022/07/04 07:25:22;;;;;;;12.90;12.00;;;25.90;92.00;;;;;;4934892;29;20528;-75
2022/07/04 07:27:49;;;;;;;13.17;12.57;;;26.00;92.00;;;;;;4934572;29;20509;-76
2022/07/04 07:30:16;;;;;;;12.80;12.10;;;25.90;91.90;;;;;;4934734;29;20490;-75
2022/07/04 07:32:42;;;;;;;12.60;11.97;;;26.00;91.90;;;;;;4934730;29;20446;-74
2022/07/04 07:35:09;;;;;;;13.03;12.10;;;26.10;92.20;;;;;;4935014;29;20457;-75
2022/07/04 07:37:36;;;;;;;13.50;12.73;;;26.10;92.30;;;;;;4934514;29;20509;-75
2022/07/04 07:40:05;;;;;;;12.57;11.97;;;26.30;91.70;;;;;;4933804;29;20525;-74
2022/07/04 07:42:32;;;;;;;13.17;12.30;;;26.40;91.60;;;;;;4934519;29;20885;-76
2022/07/04 07:44:58;;;;;;;12.70;12.10;;;26.10;91.50;;;;;;4934404;29;21010;-75
2022/07/04 07:47:25;;;;;;;13.27;12.53;;;26.00;92.20;;;;;;4934627;29;20493;-75
2022/07/04 07:49:52;;;;;;;12.23;11.60;;;25.80;92.60;;;;;;4932638;29;20457;-75
2022/07/04 07:52:19;;;;;;;12.27;11.60;;;25.70;93.60;;;;;;4932634;29;20902;-75
2022/07/04 07:54:45;;;;;;;12.07;11.37;;;25.90;92.80;;;;;;4932415;29;20951;-75
2022/07/04 07:57:13;;;;;;;12.77;12.27;;;26.30;92.40;;;;;;4934020;29;20820;-74
2022/07/04 07:59:40;;;;;;;12.87;11.97;;;26.60;91.30;;;;;;4934104;29;20861;-75
2022/07/04 08:02:08;;;;;;;13.20;12.17;;;26.40;91.70;;;;;;4933958;29;20457;-75
2022/07/04 08:04:37;;;;;;;11.93;11.30;;;26.60;91.90;;;;;;4933977;29;20802;-74
2022/07/04 08:07:05;;;;;;;13.23;12.43;;;26.50;91.30;;;;;;4933936;29;20683;-74
2022/07/04 08:09:32;;;;;;;12.63;11.83;;;26.70;91.00;;;;;;4933720;29;20540;-73
2022/07/04 08:11:59;;;;;;;12.67;12.07;;;26.40;91.60;;;;;;4933843;29;20461;-73
2022/07/04 08:14:28;;;;;;;13.43;12.63;;;26.30;92.10;;;;;;4934257;29;20989;-74
2022/07/04 08:16:55;;;;;;;13.33;12.73;;;26.50;91.40;;;;;;4934037;29;20453;-74
2022/07/04 08:19:22;;;;;;;13.30;12.70;;;26.30;91.40;;;;;;4933891;29;20461;-74
2022/07/04 08:21:48;;;;;;;12.63;11.83;;;26.00;92.30;;;;;;4933760;29;20536;-74
2022/07/04 08:24:15;;;;;;;12.20;11.70;;;26.10;93.00;;;;;;4933726;29;20606;-73
2022/07/04 08:26:43;;;;;;;13.07;12.47;;;26.30;91.90;;;;;;4931808;29;20497;-74
2022/07/04 08:29:10;;;;;;;13.23;12.50;;;26.20;92.20;;;;;;4933944;29;20469;-74
2022/07/04 08:31:38;;;;;;;12.40;11.80;;;25.90;92.70;;;;;;4933552;29;20449;-74
2022/07/04 08:34:05;;;;;;;12.33;11.77;;;26.00;92.40;;;;;;4933523;29;20867;-74
2022/07/04 08:36:32;;;;;;;13.43;12.30;;;25.90;92.80;;;;;;4933492;29;20442;-75
2022/07/04 08:38:59;;;;;;;14.20;13.50;;;26.20;92.50;;;;;;4931780;29;20800;-74
2022/07/04 08:41:26;;;;;;;13.43;12.53;;;26.40;91.90;;;;;;4933627;29;20985;-76
2022/07/04 08:43:56;;;;;;;14.33;13.10;;;26.30;92.20;;;;;;4933470;29;20464;-76
2022/07/04 08:46:26;;;;;;;12.63;11.80;;;26.40;92.50;;;;;;4933564;29;20485;-75
2022/07/04 08:48:56;;;;;;;13.47;12.70;;;26.90;91.70;;;;;;4933557;29;20463;-75
2022/07/04 08:51:34;;;;;;;12.60;12.10;;;27.10;91.30;;;;;;4933012;29;20449;-75
2022/07/04 08:58:25;;;;;;;12.13;11.70;;;27.00;91.10;;;;;;4933381;29;20453;-76
2022/07/04 08:59:50;;;;;;;13.37;12.67;;;27.10;90.90;;;;;;4892989;29;20450;-75
2022/07/04 09:02:19;;;;;;;13.80;12.90;;;27.50;90.70;;;;;;4892878;29;20448;-75
2022/07/04 09:04:48;;;;;;;14.93;13.80;;;27.70;90.00;;;;;;4910821;29;20453;-76
2022/07/04 09:07:15;;;;;;;14.47;13.57;;;27.60;90.00;;;;;;4932599;29;20573;-76
2022/07/04 09:09:43;;;;;;;13.60;12.90;;;27.20;90.10;;;;;;4932870;29;20472;-73
2022/07/04 09:12:10;;;;;;;27.57;16.10;;;27.00;90.70;;;;;;4933124;29;20453;-74
2022/07/04 09:14:37;;;;;;;13.53;12.63;;;27.10;91.00;;;;;;4933023;29;20449;-74
2022/07/04 09:17:04;;;;;;;13.43;12.63;;;27.60;90.80;;;;;;4932983;29;20501;-75
2022/07/04 09:19:31;;;;;;;14.27;13.57;;;27.10;90.40;;;;;;4933000;29;20540;-74
2022/07/04 09:22:03;;;;;;;13.83;12.90;;;27.60;90.30;;;;;;4933403;29;20457;-74
2022/07/04 09:24:45;;;;;;;13.40;12.60;;;28.20;88.80;;;;;;4932919;29;20871;-74
2022/07/04 09:27:12;;;;;;;13.37;12.67;;;28.40;89.60;;;;;;4932579;29;20492;-74
2022/07/04 09:29:53;;;;;;;13.77;13.00;;;28.90;87.20;;;;;;4933103;29;20464;-73
2022/07/04 09:32:25;;;;;;;13.60;12.80;;;29.60;83.10;;;;;;4933642;29;21053;-75
2022/07/04 09:34:55;;;;;;;13.10;12.50;;;29.40;83.20;;;;;;4934039;29;20508;-75
2022/07/04 09:37:23;;;;;;;14.20;13.43;;;30.50;80.00;;;;;;4931253;29;20453;-75
2022/07/04 09:39:50;;;;;;;13.17;12.43;;;31.10;78.80;;;;;;4932889;29;20480;-76
2022/07/04 09:42:20;;;;;;;13.80;13.10;;;31.30;75.80;;;;;;4932622;29;20505;-73
2022/07/04 09:44:48;;;;;;;14.90;13.90;;;30.80;75.50;;;;;;4932551;29;20457;-74
2022/07/04 09:47:24;;;;;;;15.10;14.40;;;31.10;75.90;;;;;;4932611;29;20842;-74
2022/07/04 09:49:59;;;;;;;13.50;12.90;;;31.60;74.50;;;;;;4932622;29;20465;-74
2022/07/04 09:52:29;;;;;;;13.73;13.10;;;33.10;68.10;;;;;;4933103;29;20485;-75
2022/07/04 09:54:58;;;;;;;15.03;14.13;;;34.40;65.00;;;;;;4932816;29;20793;-74
2022/07/04 09:57:26;;;;;;;13.70;13.20;;;34.50;64.10;;;;;;4932784;29;20458;-73
2022/07/04 09:59:52;;;;;;;15.73;14.83;;;35.40;59.90;;;;;;4930834;29;20475;-74
2022/07/04 10:02:20;;;;;;;15.20;14.40;;;36.10;58.10;;;;;;4934010;29;20453;-74
2022/07/04 10:04:49;;;;;;;15.70;14.40;;;36.50;55.70;;;;;;4934494;29;20449;-75
2022/07/04 10:07:35;;;;;;;16.53;15.57;;;37.20;53.90;;;;;;4935992;29;20500;-75
2022/07/04 10:10:23;;;;;;;16.73;15.83;;;37.20;52.20;;;;;;4936033;29;20472;-75
2022/07/04 10:12:50;;;;;;;15.27;14.67;;;36.70;53.90;;;;;;4935940;29;20548;-74
2022/07/04 10:15:17;;;;;;;15.63;14.73;;;36.70;52.40;;;;;;4935859;29;20461;-74
2022/07/04 10:17:43;;;;;;;14.70;13.87;;;36.80;52.80;;;;;;4935906;29;20506;-75
2022/07/04 10:20:12;;;;;;;14.83;14.13;;;37.30;50.70;;;;;;4936037;29;20796;-75
2022/07/04 10:22:41;;;;;;;13.80;13.00;;;36.20;50.60;;;;;;4934292;29;20461;-75
2022/07/04 10:25:10;;;;;;;14.57;13.97;;;35.80;52.40;;;;;;4935885;29;20517;-74
2022/07/04 10:27:38;;;;;;;16.10;15.50;;;36.00;52.80;;;;;;4935453;29;20482;-75
2022/07/04 10:30:07;;;;;;;13.90;13.10;;;35.80;50.60;;;;;;4935671;29;20449;-75
2022/07/04 10:32:34;;;;;;;16.30;15.50;;;35.50;51.40;;;;;;4935794;29;21003;-75
2022/07/04 10:35:01;;;;;;;13.60;13.00;;;35.20;52.60;;;;;;4935744;29;20453;-75
2022/07/04 10:37:57;;;;;;;13.67;13.07;;;35.20;50.50;;;;;;4935986;29;20448;-75
2022/07/04 10:40:42;;;;;;;13.33;12.77;;;34.50;52.50;;;;;;4933450;29;20473;-74
2022/07/04 10:43:48;;;;;;;13.93;13.33;;;34.50;53.40;;;;;;4935741;29;20492;-74
2022/07/04 10:46:35;;;;;;;15.37;14.57;;;34.20;52.50;;;;;;4920855;29;20461;-74
2022/07/04 10:49:03;;;;;;;13.33;12.83;;;33.90;52.30;;;;;;4933712;29;20572;-74
2022/07/04 10:51:42;;;;;;;14.47;13.77;;;34.20;52.40;;;;;;4935389;29;20450;-74
2022/07/04 10:54:12;;;;;;;13.03;12.53;;;33.80;52.40;;;;;;4935796;29;20463;-75
2022/07/04 10:56:43;;;;;;;13.47;12.87;;;34.20;53.00;;;;;;4935683;29;20464;-74
2022/07/04 10:59:15;;;;;;;14.43;13.83;;;34.10;53.30;;;;;;4934044;29;20457;-76
2022/07/04 11:01:46;;;;;;;14.07;13.43;;;34.30;52.00;;;;;;4935505;29;20468;-77
2022/07/04 11:04:13;;;;;;;15.23;14.47;;;35.40;51.50;;;;;;4935253;29;20499;-76
2022/07/04 11:06:55;;;;;;;15.60;14.83;;;35.30;50.60;;;;;;4935349;29;20520;-76
2022/07/04 11:09:24;;;;;;;16.00;15.23;;;35.20;50.70;;;;;;4935242;29;20800;-76
2022/07/04 11:11:56;;;;;;;14.87;14.07;;;35.20;49.70;;;;;;4935072;29;20457;-76
2022/07/04 11:14:38;;;;;;;14.13;13.53;;;34.30;51.30;;;;;;4935227;29;20457;-76
2022/07/04 11:17:05;;;;;;;14.73;14.13;;;33.60;52.20;;;;;;4934978;29;20487;-76
2022/07/04 11:19:32;;;;;;;14.60;13.80;;;34.30;52.40;;;;;;4934928;29;20454;-76
2022/07/04 11:21:59;;;;;;;14.73;14.20;;;35.60;50.50;;;;;;4934730;29;20453;-76
2022/07/04 11:24:27;;;;;;;15.07;14.40;;;35.30;50.50;;;;;;4935203;29;20453;-77
2022/07/04 11:26:55;;;;;;;14.93;14.40;;;35.50;50.20;;;;;;4934809;29;20473;-77
2022/07/04 11:29:22;;;;;;;14.23;13.63;;;35.80;48.90;;;;;;4934988;29;20461;-75
2022/07/04 11:31:50;;;;;;;14.87;14.17;;;36.20;49.10;;;;;;4934596;29;20528;-75
2022/07/04 11:34:18;;;;;;;14.73;14.10;;;35.90;48.90;;;;;;4934583;29;20672;-76
2022/07/04 11:36:46;;;;;;;15.30;14.70;;;36.20;48.80;;;;;;4934535;29;20458;-76
2022/07/04 11:39:14;;;;;;;14.77;14.10;;;36.60;48.70;;;;;;4934940;29;20473;-76
2022/07/04 11:47:16;;;;;;;15.37;14.60;;;37.70;46.00;;;;;;4934347;29;20440;-76
2022/07/04 11:49:45;;;;;;;14.43;13.83;;;36.90;47.20;;;;;;4934659;29;20465;-76
2022/07/04 11:52:13;;;;;;;14.70;14.07;;;36.40;48.20;;;;;;4934484;29;20457;-75
2022/07/04 11:54:41;;;;;;;14.67;13.80;;;36.60;47.30;;;;;;4934381;29;20861;-75
2022/07/04 11:57:12;;;;;;;13.80;13.20;;;36.10;47.80;;;;;;4934205;29;20457;-75
2022/07/04 11:59:40;;;;;;;13.93;13.33;;;35.60;49.30;;;;;;4934802;29;20468;-75
2022/07/04 12:02:17;;;;;;;14.33;13.73;;;35.00;51.00;;;;;;4934840;29;20457;-75
2022/07/04 12:04:44;;;;;;;13.40;12.90;;;34.80;51.50;;;;;;4934538;29;20453;-75
2022/07/04 12:07:12;;;;;;;15.00;14.20;;;35.40;50.80;;;;;;4934820;29;20461;-75
2022/07/04 12:09:40;;;;;;;16.30;15.40;;;35.30;51.00;;;;;;4934856;29;20449;-75
2022/07/04 12:12:08;;;;;;;15.03;14.30;;;35.30;51.00;;;;;;4934446;29;20454;-75
2022/07/04 12:14:34;;;;;;;15.00;14.30;;;35.00;51.20;;;;;;4934477;29;20952;-74
2022/07/04 12:17:17;;;;;;;13.80;13.30;;;34.80;51.50;;;;;;4934465;29;20453;-75
2022/07/04 12:19:52;;;;;;;14.70;14.20;;;34.80;51.90;;;;;;4934369;29;21118;-75
2022/07/04 12:22:30;;;;;;;14.20;13.60;;;35.60;51.00;;;;;;4934367;29;20543;-75
2022/07/04 12:24:57;;;;;;;14.33;13.63;;;36.00;49.90;;;;;;4933774;29;20496;-75
2022/07/04 12:27:24;;;;;;;15.50;14.80;;;36.00;49.10;;;;;;4933924;29;20489;-75
2022/07/04 12:29:52;;;;;;;15.20;14.60;;;36.30;48.80;;;;;;4934170;29;20453;-75
2022/07/04 12:32:20;;;;;;;16.00;15.30;;;36.00;49.00;;;;;;4932325;29;20458;-75
2022/07/04 12:34:47;;;;;;;14.80;14.20;;;36.10;49.10;;;;;;4934118;29;20489;-75
2022/07/04 12:37:17;;;;;;;14.93;14.33;;;35.80;48.50;;;;;;4933660;29;20454;-76
2022/07/04 12:39:45;;;;;;;15.23;14.27;;;35.30;49.30;;;;;;4932779;29;20557;-73
2022/07/04 12:42:13;;;;;;;14.33;13.73;;;35.90;48.60;;;;;;4933015;29;20453;-74
2022/07/04 12:44:41;;;;;;;13.73;13.23;;;35.70;49.20;;;;;;4932836;29;20826;-76
2022/07/04 12:47:09;;;;;;;15.10;14.30;;;35.60;49.40;;;;;;4932878;29;20817;-75
2022/07/04 12:49:37;;;;;;;14.10;13.60;;;34.20;51.00;;;;;;4932579;29;20481;-75
2022/07/04 12:52:09;;;;;;;13.97;13.37;;;34.10;51.50;;;;;;4932500;29;20457;-75
2022/07/04 12:54:36;;;;;;;14.27;13.73;;;34.40;52.00;;;;;;4932598;29;20453;-75
2022/07/04 12:57:09;;;;;;;14.30;13.80;;;34.50;51.10;;;;;;4932386;29;20532;-75
2022/07/04 12:59:35;;;;;;;14.90;14.10;;;34.70;50.70;;;;;;4932518;29;20439;-73
2022/07/04 13:02:02;;;;;;;14.30;13.67;;;35.00;50.30;;;;;;4932411;29;20493;-75
2022/07/04 13:04:30;;;;;;;13.47;12.57;;;36.10;49.00;;;;;;4932299;29;20449;-75
2022/07/04 13:06:59;;;;;;;13.57;12.97;;;36.40;47.70;;;;;;4932471;29;20510;-74
2022/07/04 13:09:26;;;;;;;12.50;11.90;;;34.60;49.20;;;;;;4930064;29;20576;-74
2022/07/04 13:14:37;;;;;;;13.90;13.40;;;34.30;50.00;;;;;;4931532;29;20432;-75
2022/07/04 13:17:04;;;;;;;14.00;13.40;;;34.20;50.30;;;;;;4932697;29;20449;-74
2022/07/04 13:19:31;;;;;;;14.43;13.77;;;34.20;50.80;;;;;;4934711;29;20932;-75
2022/07/04 13:21:59;;;;;;;13.43;13.00;;;34.00;50.10;;;;;;4934665;29;20464;-74
2022/07/04 13:24:25;;;;;;;13.80;13.30;;;32.50;52.60;;;;;;4930965;29;20438;-75
2022/07/04 13:26:52;;;;;;;13.93;12.93;;;31.20;55.10;;;;;;4942527;29;20469;-75
2022/07/04 13:29:19;;;;;;;13.40;12.90;;;30.40;57.00;;;;;;4931138;29;20489;-75
2022/07/04 13:31:45;;;;;;;13.53;12.93;;;29.80;58.10;;;;;;4921645;29;20493;-74
2022/07/04 13:34:12;;;;;;;13.37;12.87;;;29.30;59.60;;;;;;4925730;29;20457;-75
2022/07/04 13:36:39;;;;;;;13.60;12.80;;;28.70;60.00;;;;;;4922451;29;20464;-75
2022/07/04 13:39:07;;;;;;;13.03;12.43;;;29.10;62.30;;;;;;4927512;29;20449;-75
2022/07/04 13:41:35;;;;;;;13.23;12.73;;;29.30;61.70;;;;;;4927076;29;20497;-76
2022/07/04 13:44:04;;;;;;;13.47;12.67;;;29.40;60.10;;;;;;4925627;29;20917;-75
2022/07/04 13:46:34;;;;;;;12.77;12.27;;;29.40;60.50;;;;;;4928886;29;20908;-74
2022/07/04 13:49:01;;;;;;;13.40;12.90;;;29.30;59.60;;;;;;4925430;29;20508;-75
2022/07/04 13:51:28;;;;;;;13.60;13.10;;;29.60;60.10;;;;;;4927660;29;20461;-75
2022/07/04 13:53:54;;;;;;;12.30;11.87;;;30.50;58.00;;;;;;4926682;29;20457;-74
2022/07/04 13:56:23;;;;;;;13.83;13.07;;;30.90;57.20;;;;;;4925271;29;20975;-74
2022/07/04 13:58:50;;;;;;;14.33;13.43;;;30.80;57.20;;;;;;4925788;29;20449;-75
2022/07/04 14:01:19;;;;;;;12.70;12.20;;;30.70;58.60;;;;;;4927047;29;20454;-75
2022/07/04 14:03:46;;;;;;;13.00;12.50;;;30.40;57.80;;;;;;4925657;29;20840;-76
2022/07/04 14:06:13;;;;;;;13.67;13.07;;;30.80;57.40;;;;;;4921069;29;20450;-76
2022/07/04 14:08:40;;;;;;;11.37;10.97;;;30.60;57.30;;;;;;4919708;29;20514;-76
2022/07/04 14:11:06;;;;;;;13.77;13.07;;;31.20;56.90;;;;;;4925933;29;20513;-74
2022/07/04 14:13:35;;;;;;;13.30;12.70;;;32.10;56.50;;;;;;4927915;29;20452;-76
2022/07/04 14:16:04;;;;;;;13.20;12.60;;;32.90;55.80;;;;;;4927292;29;20454;-74
2022/07/04 14:18:31;;;;;;;13.70;13.20;;;33.10;55.10;;;;;;4925941;29;20446;-75
2022/07/04 14:20:58;;;;;;;13.10;12.50;;;33.00;55.40;;;;;;4927517;29;20807;-74
2022/07/04 14:26:05;;;;;;;12.60;12.10;;;33.20;53.00;;;;;;4926311;29;20506;-76
2022/07/04 14:28:32;;;;;;;13.10;12.60;;;33.00;54.20;;;;;;4923124;29;20595;-74
2022/07/04 14:31:01;;;;;;;11.97;11.37;;;32.30;55.50;;;;;;4927095;29;20519;-76
2022/07/04 14:33:27;;;;;;;12.50;11.93;;;32.10;55.20;;;;;;4927895;29;20452;-75
2022/07/04 14:35:54;;;;;;;13.20;12.60;;;32.00;56.30;;;;;;4926677;29;20453;-75
2022/07/04 14:38:21;;;;;;;13.70;13.10;;;31.90;55.40;;;;;;4926576;29;20457;-75
2022/07/04 14:40:49;;;;;;;13.73;12.73;;;30.90;56.70;;;;;;4927481;29;20446;-75
2022/07/04 14:43:17;;;;;;;12.83;12.33;;;30.80;58.10;;;;;;4926239;29;20451;-76
2022/07/04 14:45:44;;;;;;;13.13;12.43;;;30.80;57.90;;;;;;4926292;29;20545;-75
2022/07/04 14:48:13;;;;;;;13.23;12.53;;;30.50;58.80;;;;;;4926960;29;20569;-75
2022/07/04 14:50:39;;;;;;;12.50;11.97;;;30.40;58.70;;;;;;4927051;29;20998;-75
2022/07/04 14:53:06;;;;;;;13.23;12.50;;;30.90;59.30;;;;;;4925502;29;20854;-76
2022/07/04 14:55:33;;;;;;;13.13;12.40;;;31.20;59.20;;;;;;4927048;29;20512;-74
2022/07/04 14:57:59;;;;;;;13.63;12.97;;;31.60;57.70;;;;;;4926228;29;20514;-75
2022/07/04 15:00:26;;;;;;;13.63;13.13;;;32.00;57.10;;;;;;4923216;29;20517;-74
2022/07/04 15:02:53;;;;;;;13.47;12.93;;;31.60;56.40;;;;;;4917313;29;20465;-74
2022/07/04 15:05:21;;;;;;;13.93;13.40;;;31.60;57.40;;;;;;4916892;29;20462;-75
2022/07/04 15:07:48;;;;;;;13.67;13.00;;;31.30;57.00;;;;;;4916810;29;20875;-76
2022/07/04 15:10:15;;;;;;;13.77;13.13;;;30.80;58.40;;;;;;4917186;29;20516;-74
2022/07/04 15:12:42;;;;;;;14.73;13.60;;;30.30;58.90;;;;;;4917151;29;20462;-74
2022/07/04 15:15:10;;;;;;;14.17;13.23;;;30.20;60.40;;;;;;4917053;29;20474;-75
2022/07/04 15:17:37;;;;;;;13.63;13.03;;;29.90;60.40;;;;;;4916738;29;20901;-75
2022/07/04 15:25:35;;;;;;;12.90;12.43;;;29.30;63.20;;;;;;4916689;29;20534;-75
2022/07/04 15:28:01;;;;;;;13.80;13.20;;;29.20;61.70;;;;;;4926716;29;20748;-75
2022/07/04 15:30:28;;;;;;;13.93;13.23;;;29.20;61.60;;;;;;4935552;29;20533;-75
2022/07/04 15:32:55;;;;;;;12.83;12.20;;;29.30;61.40;;;;;;4935508;29;20462;-75
2022/07/04 15:35:22;;;;;;;14.27;13.40;;;29.20;61.10;;;;;;4935318;29;20501;-73
2022/07/04 15:37:48;;;;;;;14.13;13.50;;;29.20;62.20;;;;;;4935223;29;20480;-75
2022/07/04 15:40:16;;;;;;;14.13;13.50;;;28.90;63.50;;;;;;4935199;29;20802;-73
2022/07/04 15:42:43;;;;;;;13.70;13.10;;;29.10;63.60;;;;;;4935328;29;20457;-75
2022/07/04 15:45:11;;;;;;;14.27;13.67;;;29.30;63.90;;;;;;4935534;29;20971;-75
2022/07/04 15:47:37;;;;;;;14.07;13.47;;;29.10;63.80;;;;;;4935404;29;20461;-73
2022/07/04 15:50:05;;;;;;;14.27;13.67;;;29.10;64.70;;;;;;4935097;29;20521;-74
2022/07/04 15:52:32;;;;;;;14.43;13.73;;;29.50;64.70;;;;;;4932499;29;20609;-73
2022/07/04 15:54:58;;;;;;;13.70;13.00;;;29.40;63.70;;;;;;4934923;29;20462;-74
2022/07/04 15:57:27;;;;;;;14.03;13.43;;;29.30;62.50;;;;;;4935468;29;20450;-74
2022/07/04 15:59:53;;;;;;;14.40;13.90;;;29.20;63.60;;;;;;4934106;29;20457;-75
2022/07/04 16:02:20;;;;;;;13.70;13.20;;;29.30;63.70;;;;;;4935207;29;20460;-75
2022/07/04 16:04:47;;;;;;;12.20;11.70;;;29.30;64.60;;;;;;4935287;29;20453;-75
2022/07/04 16:07:14;;;;;;;13.60;12.50;;;29.30;64.50;;;;;;4935168;29;20458;-76
2022/07/04 16:09:41;;;;;;;12.60;12.10;;;29.00;63.60;;;;;;4935484;29;20925;-75
2022/07/04 16:12:08;;;;;;;13.50;13.00;;;28.70;63.30;;;;;;4935142;29;20816;-75
2022/07/04 16:14:36;;;;;;;12.80;12.30;;;28.50;64.00;;;;;;4935444;29;20557;-75
2022/07/04 16:17:03;;;;;;;13.73;13.20;;;28.50;64.00;;;;;;4935193;29;20454;-75
2022/07/04 16:19:30;;;;;;;12.80;12.10;;;28.40;64.20;;;;;;4934800;29;20472;-74
2022/07/04 16:21:57;;;;;;;12.57;12.00;;;28.20;63.40;;;;;;4935624;29;20477;-76
2022/07/04 16:24:24;;;;;;;13.40;12.83;;;28.00;64.10;;;;;;4934999;29;20831;-75
2022/07/04 16:26:51;;;;;;;13.20;12.70;;;28.10;65.70;;;;;;4934706;29;20480;-74
2022/07/04 16:29:18;;;;;;;13.30;12.70;;;28.20;64.60;;;;;;4934559;29;20588;-75
2022/07/04 16:31:46;;;;;;;13.30;12.27;;;28.30;63.70;;;;;;4934496;29;20872;-74
2022/07/04 16:34:13;;;;;;;12.90;12.10;;;28.40;62.70;;;;;;4934286;29;20458;-74
2022/07/04 16:36:39;;;;;;;13.17;12.67;;;28.40;63.00;;;;;;4934374;29;20461;-74
2022/07/04 16:39:06;;;;;;;12.33;11.83;;;28.80;63.40;;;;;;4934156;29;20803;-75
2022/07/04 16:41:33;;;;;;;12.73;12.23;;;29.10;60.60;;;;;;4934176;29;20461;-75
2022/07/04 16:44:00;;;;;;;16.20;15.30;;;29.00;60.70;;;;;;4933874;29;20457;-75
2022/07/04 16:46:26;;;;;;;13.50;12.90;;;29.00;60.50;;;;;;4934558;29;20454;-76
2022/07/04 16:48:54;;;;;;;12.57;12.07;;;29.10;59.10;;;;;;4934580;29;20493;-75
2022/07/04 16:51:21;;;;;;;12.57;12.03;;;29.20;58.80;;;;;;4934438;29;20453;-76
2022/07/04 16:53:48;;;;;;;13.10;12.37;;;29.10;58.70;;;;;;4934718;29;20457;-75
2022/07/04 16:56:15;;;;;;;13.80;13.10;;;29.20;58.10;;;;;;4933914;29;20512;-75
2022/07/04 16:58:41;;;;;;;12.90;12.30;;;29.30;57.80;;;;;;4934482;29;20457;-75
2022/07/04 17:01:08;;;;;;;12.90;12.33;;;29.30;58.20;;;;;;4933740;29;20449;-74
2022/07/04 17:03:35;;;;;;;12.70;12.10;;;29.20;57.90;;;;;;4933414;29;20457;-74
2022/07/04 17:06:03;;;;;;;12.40;12.00;;;29.00;58.00;;;;;;4933479;29;20442;-75
2022/07/04 17:08:30;;;;;;;13.30;12.50;;;28.80;57.50;;;;;;4933370;29;20955;-74
2022/07/04 17:10:58;;;;;;;12.80;12.23;;;28.80;57.80;;;;;;4933148;29;20489;-75
2022/07/04 17:13:24;;;;;;;12.57;11.83;;;28.80;57.60;;;;;;4931330;29;20567;-74
2022/07/04 17:15:51;;;;;;;12.40;11.60;;;28.80;56.70;;;;;;4933593;29;20449;-76
2022/07/04 17:18:18;;;;;;;12.30;11.90;;;28.70;57.00;;;;;;4934094;29;20719;-76
2022/07/04 17:20:44;;;;;;;12.57;11.77;;;28.40;56.80;;;;;;4933973;29;20516;-75
2022/07/04 17:23:12;;;;;;;10.50;9.90;;;28.30;56.50;;;;;;4934253;29;20508;-77
2022/07/04 17:25:39;;;;;;;12.93;12.33;;;28.30;56.50;;;;;;4934276;29;20477;-75
2022/07/04 17:28:06;;;;;;;12.60;12.10;;;28.20;55.70;;;;;;4933180;29;20485;-75
2022/07/04 17:30:33;;;;;;;13.00;11.77;;;28.30;56.10;;;;;;4933149;29;20852;-76
2022/07/04 17:33:00;;;;;;;12.73;12.23;;;28.30;55.40;;;;;;4933766;29;20487;-73
2022/07/04 17:35:26;;;;;;;12.27;11.83;;;28.30;55.90;;;;;;4931291;29;20449;-76
2022/07/04 17:37:53;;;;;;;12.00;11.60;;;28.40;54.80;;;;;;4932860;29;20457;-75
2022/07/04 17:40:21;;;;;;;12.00;11.60;;;28.10;54.10;;;;;;4933533;29;20445;-75
2022/07/04 17:42:48;;;;;;;12.87;12.17;;;27.80;54.20;;;;;;4933633;29;20449;-75
2022/07/04 17:45:14;;;;;;;11.33;10.83;;;27.60;54.70;;;;;;4933080;29;20456;-75
2022/07/04 17:47:41;;;;;;;12.03;11.57;;;27.60;54.60;;;;;;4933426;29;20457;-75
2022/07/04 17:50:10;;;;;;;11.60;11.13;;;27.60;55.30;;;;;;4933826;29;20575;-75
2022/07/04 17:52:36;;;;;;;12.53;11.70;;;27.50;55.10;;;;;;4933214;29;20472;-74
2022/07/04 17:55:03;;;;;;;13.13;12.63;;;27.50;55.00;;;;;;4932658;29;20452;-75
2022/07/04 17:57:31;;;;;;;12.70;12.10;;;27.30;54.60;;;;;;4932514;29;20920;-75
2022/07/04 17:59:58;;;;;;;12.80;12.00;;;27.10;54.80;;;;;;4930451;29;20517;-74
2022/07/04 18:02:25;;;;;;;12.10;11.40;;;27.10;55.20;;;;;;4932793;29;20453;-77
2022/07/04 18:04:51;;;;;;;13.00;12.40;;;27.10;55.00;;;;;;4932605;29;20445;-75
2022/07/04 18:07:18;;;;;;;13.77;12.50;;;26.90;54.70;;;;;;4932938;29;20449;-75
2022/07/04 18:09:45;;;;;;;11.73;11.33;;;26.80;55.00;;;;;;4932666;29;20485;-75
2022/07/04 18:12:12;;;;;;;12.77;12.27;;;26.70;55.30;;;;;;4932963;29;20446;-75
2022/07/04 18:14:40;;;;;;;12.97;12.27;;;26.70;55.70;;;;;;4932884;29;20461;-73
2022/07/04 18:17:07;;;;;;;11.57;11.13;;;26.70;55.70;;;;;;4932302;29;20451;-74
2022/07/04 18:19:34;;;;;;;11.60;11.03;;;26.60;54.90;;;;;;4933516;29;20552;-75
2022/07/04 18:22:01;;;;;;;12.73;12.23;;;26.60;54.70;;;;;;4933729;29;20454;-74
2022/07/04 18:24:27;;;;;;;12.80;12.20;;;26.50;55.20;;;;;;4937321;29;20441;-75